createdAt,value
2023-04-25T00:04:14.705Z,97729.75
2023-04-25T00:09:16.724Z,97726.59
2023-04-25T00:14:18.917Z,97730.69
2023-04-25T00:19:21.071Z,97729.87
2023-04-25T00:24:23.660Z,97728.32
2023-04-25T00:29:25.747Z,97732.36
2023-04-25T00:34:27.706Z,97728.96
2023-04-25T00:39:29.641Z,97736.74
2023-04-25T00:44:33.302Z,97737.73
2023-04-25T00:49:35.472Z,97739.80
2023-04-25T00:54:37.788Z,97743.17
2023-04-25T00:59:43.096Z,97739.23
2023-04-25T01:04:45.732Z,97740.46
2023-04-25T01:09:47.687Z,97750.23
2023-04-25T01:14:49.916Z,97748.77
2023-04-25T01:19:52.507Z,97751.58
2023-04-25T01:24:54.826Z,97750.21
2023-04-25T01:29:58.491Z,97758.22
2023-04-25T01:35:00.656Z,97767.07
2023-04-25T01:40:02.849Z,97770.16
2023-04-25T01:45:05.597Z,97770.38
2023-04-25T01:50:09.735Z,97773.84
2023-04-25T01:55:12.986Z,97773.02
2023-04-25T02:00:24.514Z,97781.64
2023-04-25T02:05:27.320Z,97785.23
2023-04-25T02:10:29.465Z,97784.27
2023-04-25T02:15:53.253Z,97784.95
2023-04-25T02:20:55.763Z,97783.73
2023-04-25T02:25:58.608Z,97781.78
2023-04-25T02:31:00.839Z,97782.44
2023-04-25T02:36:03.415Z,97783.13
2023-04-25T02:41:05.199Z,97785.71
2023-04-25T02:46:07.703Z,97789.70
2023-04-25T02:51:09.607Z,97785.07
2023-04-25T02:56:11.830Z,97779.70
2023-04-25T03:01:13.803Z,97782.20
2023-04-25T03:06:16.992Z,97783.33
2023-04-25T03:11:21.237Z,97781.17
2023-04-25T03:16:23.813Z,97783.25
2023-04-25T03:21:26.346Z,97782.23
2023-04-25T03:26:28.696Z,97784.36
2023-04-25T03:31:31.869Z,97785.44
2023-04-25T03:36:36.315Z,97793.17
2023-04-25T03:41:38.547Z,97792.20
2023-04-25T03:46:45.620Z,97791.84
2023-04-25T03:51:47.823Z,97791.49
2023-04-25T03:56:52.175Z,97798.20
2023-04-25T04:01:55.718Z,97802.65
2023-04-25T04:06:58.879Z,97800.20
2023-04-25T04:12:04.284Z,97804.91
2023-04-25T04:17:08.178Z,97805.05
2023-04-25T04:22:11.137Z,97809.17
2023-04-25T04:27:14.658Z,97816.11
2023-04-25T04:32:24.959Z,97816.62
2023-04-25T04:37:28.061Z,97825.95
2023-04-25T04:42:30.281Z,97819.58
2023-04-25T04:48:13.074Z,97822.58
2023-04-25T04:53:33.865Z,97826.63
2023-04-25T04:58:54.308Z,97824.88
2023-04-25T05:04:06.753Z,97820.44
2023-04-25T05:09:35.083Z,97822.55
2023-04-25T05:15:10.698Z,97823.45
2023-04-25T05:20:31.564Z,97825.73
2023-04-25T05:25:49.322Z,97824.23
2023-04-25T05:31:08.631Z,97825.29
2023-04-25T05:36:26.994Z,97827.13
2023-04-25T05:41:29.456Z,97827.15
2023-04-25T05:46:38.827Z,97833.28
2023-04-25T05:52:01.225Z,97831.43
2023-04-25T05:57:27.683Z,97835.10
2023-04-25T06:02:32.492Z,97830.71
2023-04-25T06:07:35.279Z,97830.47
2023-04-25T06:12:39.494Z,97837.73
2023-04-25T06:17:41.441Z,97839.89
2023-04-25T06:22:43.475Z,97841.02
2023-04-25T06:27:45.869Z,97842.27
2023-04-25T06:32:48.907Z,97844.16
2023-04-25T06:37:51.343Z,97846.07
2023-04-25T06:42:55.198Z,97842.48
2023-04-25T06:48:16.584Z,97841.32
2023-04-25T06:53:19.637Z,97842.14
2023-04-25T06:58:23.970Z,97839.00
2023-04-25T07:03:46.456Z,97836.30
2023-04-25T07:08:52.465Z,97833.24
2023-04-25T07:13:55.308Z,97827.38
2023-04-25T07:18:57.397Z,97833.98
2023-04-25T07:23:59.789Z,97834.05
2023-04-25T07:29:05.882Z,97836.86
2023-04-25T07:34:07.859Z,97841.08
2023-04-25T07:39:10.753Z,97836.96
2023-04-25T07:44:13.343Z,97839.15
2023-04-25T07:49:16.388Z,97836.05
2023-04-25T07:54:19.733Z,97837.83
2023-04-25T07:59:30.296Z,97830.99
2023-04-25T08:04:33.759Z,97833.48
2023-04-25T08:09:39.078Z,97838.16
2023-04-25T08:14:44.186Z,97836.91
2023-04-25T08:19:47.176Z,97833.86
2023-04-25T08:24:58.487Z,97832.52
2023-04-25T08:30:00.729Z,97833.24
2023-04-25T08:35:03.227Z,97837.92
2023-04-25T08:40:10.689Z,97835.26
2023-04-25T08:45:22.153Z,97836.95
2023-04-25T08:50:27.549Z,97845.54
2023-04-25T08:55:31.736Z,97839.90
2023-04-25T09:00:34.492Z,97841.27
2023-04-25T09:05:38.595Z,97838.44
2023-04-25T09:10:41.168Z,97839.87
2023-04-25T09:15:49.728Z,97842.53
2023-04-25T09:21:14.402Z,97847.23
2023-04-25T09:26:21.773Z,97850.09
2023-04-25T09:31:27.844Z,97851.42
2023-04-25T09:36:35.982Z,97851.85
2023-04-25T09:42:17.746Z,97851.15
2023-04-25T09:47:23.212Z,97846.24
2023-04-25T09:52:26.490Z,97848.23
2023-04-25T09:57:40.768Z,97855.80
2023-04-25T10:02:47.981Z,97851.48
2023-04-25T10:08:05.474Z,97846.69
2023-04-25T10:13:07.820Z,97849.91
2023-04-25T10:18:10.713Z,97848.37
2023-04-25T10:23:15.940Z,97849.98
2023-04-25T10:28:18.709Z,97843.80
2023-04-25T10:33:31.115Z,97848.17
2023-04-25T10:38:33.422Z,97846.14
2023-04-25T10:43:37.493Z,97844.85
2023-04-25T10:48:46.516Z,97843.64
2023-04-25T10:54:07.012Z,97843.31
2023-04-25T10:59:11.651Z,97841.74
2023-04-25T11:04:33.224Z,97840.08
2023-04-25T11:09:37.509Z,97840.80
2023-04-25T11:19:42.711Z,97844.87
2023-04-25T11:24:45.127Z,97844.79
2023-04-25T11:29:49.113Z,97846.83
2023-04-25T11:34:50.951Z,97846.79
2023-04-25T11:39:52.897Z,97838.14
2023-04-25T11:44:54.882Z,97842.04
2023-04-25T11:49:59.642Z,97841.76
2023-04-25T11:55:01.796Z,97841.34
2023-04-25T12:00:15.691Z,97847.64
2023-04-25T12:05:32.176Z,97838.42
2023-04-25T12:10:39.790Z,97834.31
2023-04-25T12:15:42.253Z,97831.49
2023-04-25T12:20:44.196Z,97834.95
2023-04-25T12:25:48.247Z,97833.66
2023-04-25T12:31:05.653Z,97833.27
2023-04-25T12:36:12.750Z,97832.59
2023-04-25T12:41:14.783Z,97830.92
2023-04-25T12:46:16.849Z,97829.64
2023-04-25T12:51:20.452Z,97829.54
2023-04-25T12:56:24.542Z,97822.38
2023-04-25T13:01:27.786Z,97815.23
2023-04-25T13:06:31.497Z,97817.48
2023-04-25T13:11:33.717Z,97810.83
2023-04-25T13:16:35.875Z,97809.14
2023-04-25T13:21:38.265Z,97805.77
2023-04-25T13:26:40.180Z,97802.48
2023-04-25T13:31:42.335Z,97806.94
2023-04-25T13:36:44.314Z,97807.19
2023-04-25T13:41:47.420Z,97807.57
2023-04-25T13:46:49.379Z,97805.55
2023-04-25T13:51:52.187Z,97800.70
2023-04-25T13:56:56.532Z,97804.14
2023-04-25T14:01:59.026Z,97801.24
2023-04-25T14:07:00.980Z,97809.65
2023-04-25T14:12:03.983Z,97812.89
2023-04-25T14:17:06.112Z,97811.54
2023-04-25T14:22:08.131Z,97813.60
2023-04-25T14:27:10.204Z,97811.76
2023-04-25T14:32:12.120Z,97818.97
2023-04-25T14:37:14.018Z,97814.09
2023-04-25T14:42:16.232Z,97807.14
2023-04-25T14:47:18.288Z,97813.77
2023-04-25T14:52:21.004Z,97816.92
2023-04-25T14:57:22.835Z,97823.50
2023-04-25T15:02:25.790Z,97817.36
2023-04-25T15:07:27.641Z,97809.55
2023-04-25T15:12:29.668Z,97814.95
2023-04-25T15:17:32.317Z,97814.86
2023-04-25T15:22:35.005Z,97811.78
2023-04-25T15:27:46.066Z,97815.89
2023-04-25T15:32:48.888Z,97823.61
2023-04-25T15:37:51.589Z,97834.27
2023-04-25T15:42:54.072Z,97833.75
2023-04-25T15:47:57.380Z,97837.23
2023-04-25T15:52:59.855Z,97832.95
2023-04-25T15:58:02.274Z,97833.39
2023-04-25T16:03:05.328Z,97838.39
2023-04-25T16:08:07.534Z,97840.31
2023-04-25T16:13:09.780Z,97844.72
2023-04-25T16:18:11.776Z,97838.63
2023-04-25T16:23:14.166Z,97837.86
2023-04-25T16:28:16.545Z,97850.81
2023-04-25T16:33:18.883Z,97855.58
2023-04-25T16:38:21.863Z,97852.92
2023-04-25T16:43:24.677Z,97855.98
2023-04-25T16:48:26.742Z,97849.46
2023-04-25T16:53:28.864Z,97854.09
2023-04-25T16:58:30.695Z,97861.30
2023-04-25T17:03:35.269Z,97869.94
2023-04-25T17:08:37.434Z,97879.36
2023-04-25T17:13:40.591Z,97876.25
2023-04-25T17:18:46.268Z,97879.48
2023-04-25T17:23:48.299Z,97886.33
2023-04-25T17:28:50.433Z,97896.99
2023-04-25T17:33:52.593Z,97904.08
2023-04-25T17:38:54.667Z,97903.14
2023-04-25T17:43:57.175Z,97914.42
2023-04-25T17:48:59.246Z,97926.80
2023-04-25T17:54:01.640Z,97934.98
2023-04-25T17:59:04.819Z,97938.63
2023-04-25T18:04:07.068Z,97942.06
2023-04-25T18:09:19.285Z,97946.58
2023-04-25T18:14:22.336Z,97958.33
2023-04-25T18:19:24.362Z,97968.80
2023-04-25T18:24:27.579Z,97975.86
2023-04-25T18:29:33.739Z,97984.61
2023-04-25T18:34:36.410Z,97995.67
2023-04-25T18:39:38.299Z,98006.61
2023-04-25T18:44:42.461Z,98010.77
2023-04-25T18:49:45.737Z,98021.02
2023-04-25T18:54:48.198Z,98029.39
2023-04-25T18:59:50.091Z,98038.88
2023-04-25T19:04:52.306Z,98044.27
2023-04-25T19:09:54.665Z,98053.62
2023-04-25T19:14:56.817Z,98053.35
2023-04-25T19:19:58.764Z,98055.68
2023-04-25T19:25:09.864Z,98059.20
2023-04-25T19:30:13.710Z,98071.08
2023-04-25T19:35:15.894Z,98074.92
2023-04-25T19:40:20.361Z,98075.99
2023-04-25T19:45:22.516Z,98083.98
2023-04-25T19:50:24.610Z,98085.56
2023-04-25T19:55:28.284Z,98090.61
2023-04-25T20:00:30.469Z,98094.01
2023-04-25T20:05:32.694Z,98096.75
2023-04-25T20:10:34.711Z,98108.61
2023-04-25T20:15:37.902Z,98103.71
2023-04-25T20:20:39.917Z,98107.16
2023-04-25T20:25:42.986Z,98106.28
2023-04-25T20:30:44.993Z,98109.37
2023-04-25T20:35:48.498Z,98122.38
2023-04-25T20:40:51.160Z,98128.33
2023-04-25T20:45:53.980Z,98136.19
2023-04-25T20:50:57.195Z,98143.61
2023-04-25T20:55:59.707Z,98147.86
2023-04-25T21:01:04.380Z,98148.88
2023-04-25T21:06:06.645Z,98155.67
2023-04-25T21:11:19.700Z,98157.40
2023-04-25T21:16:22.964Z,98161.20
2023-04-25T21:21:25.271Z,98169.42
2023-04-25T21:26:27.643Z,98177.52
2023-04-25T21:31:30.958Z,98178.73
2023-04-25T21:36:34.210Z,98185.34
2023-04-25T21:41:37.651Z,98187.21
2023-04-25T21:46:40.217Z,98187.93
2023-04-25T21:51:44.737Z,98195.89
2023-04-25T21:56:47.272Z,98200.97
2023-04-25T22:01:49.193Z,98193.81
2023-04-25T22:06:51.421Z,98185.70
2023-04-25T22:11:53.702Z,98192.77
2023-04-25T22:16:56.501Z,98206.30
2023-04-25T22:21:58.756Z,98209.39
2023-04-25T22:27:00.667Z,98208.70
2023-04-25T22:32:02.756Z,98212.39
2023-04-25T22:37:05.403Z,98217.59
2023-04-25T22:42:07.132Z,98221.95
2023-04-25T22:47:09.263Z,98223.98
2023-04-25T22:52:12.256Z,98232.27
2023-04-25T22:57:14.267Z,98229.73
2023-04-25T23:02:16.082Z,98237.47
2023-04-25T23:07:20.190Z,98240.62
2023-04-25T23:12:23.998Z,98242.27
2023-04-25T23:17:28.925Z,98249.19
2023-04-25T23:22:30.953Z,98251.84
2023-04-25T23:27:33.005Z,98257.58
2023-04-25T23:32:35.273Z,98255.98
2023-04-25T23:37:38.402Z,98258.30
2023-04-25T23:42:42.436Z,98267.31
2023-04-25T23:47:47.891Z,98267.14
2023-04-25T23:52:49.853Z,98273.11
2023-04-25T23:57:52.466Z,98272.83
